Flight Track Log - Related Links

Times and Time Zones

All times are in EDT time to prevent confusion due to time zone crossing. See the UAL1146 flight status page for this flight to view local times or setup timezone preferences in your user account.

Time Position Orientation Groundspeed Altitude Reporting Facility
EDT Latitude Longitude Course Direction KTS MPH feet Rate Location/Type
Sun 08:28:31 AM 29.9508 -95.3400 30° Northeast 187 215 800  Level Houston Center
Sun 08:29:50 AM 29.9656 -95.3842 291° West 255 293 3,300 2,100 Climbing Houston Center
Sun 08:30:51 AM 30.0353 -95.3444 26° Northeast 300 345 5,700 2,578 Climbing Houston Center
Sun 08:31:58 AM 30.1156 -95.3033 24° Northeast 293 337 8,800 2,391 Climbing Houston Center
Sun 08:32:00 AM 30.3681 -95.0256 35° Northeast  Level FlightAware Approximate
Sun 08:33:00 AM 30.4608 -94.9428 30° Northeast  Level FlightAware Approximate
Sun 08:33:09 AM 30.1881 -95.2311 41° Northeast 313 360 11,200  Level Houston Center
Sun 08:34:10 AM 30.2633 -95.1533 42° Northeast 363 418 12,200 1,377 Climbing Houston Center
Sun 08:35:11 AM 30.3478 -95.0653 42° Northeast 399 459 14,000 1,869 Climbing Houston Center
Sun 08:36:12 AM 30.4389 -94.9756 40° Northeast 415 478 16,000 2,016 Climbing Houston Center
Sun 08:37:13 AM 30.5394 -94.9014 32° Northeast 428 493 18,100 1,820 Climbing Houston Center
Sun 08:38:14 AM 30.6403 -94.8250 33° Northeast 433 498 19,700 1,672 Climbing Houston Center
Sun 08:39:15 AM 30.7644 -94.7289 34° Northeast 444 511 21,500 1,561 Climbing Houston Center
Sun 08:40:17 AM 30.8706 -94.6481 33° Northeast 455 524 22,900 1,268 Climbing Houston Center
Sun 08:41:18 AM 30.9769 -94.5653 34° Northeast 462 532 24,100 1,131 Climbing Houston Center
Sun 08:42:19 AM 31.0850 -94.4806 34° Northeast 469 540 25,200 1,033 Climbing Houston Center
Sun 08:43:20 AM 31.1939 -94.3961 34° Northeast 475 547 26,200 1,131 Climbing Houston Center
Sun 08:44:21 AM 31.3050 -94.3094 34° Northeast 480 552 27,500 1,366 Climbing Houston Center
Sun 08:45:23 AM 31.4139 -94.2233 34° Northeast 479 551 29,000 1,415 Climbing Houston Center
Sun 08:46:24 AM 31.5422 -94.1242 33° Northeast 466 536 30,400 1,279 Climbing Houston Center
Sun 08:47:25 AM 31.6481 -94.0411 34° Northeast 461 531 31,600 1,230 Climbing Houston Center
Sun 08:48:26 AM 31.7536 -93.9603 33° Northeast 455 524 32,900 1,328 Climbing Houston Center
Sun 08:49:27 AM 31.8564 -93.8789 34° Northeast 441 507 34,300 1,024 Climbing Houston Center
Sun 08:50:29 AM 31.9564 -93.7986 34° Northeast 435 501 35,000 341 Climbing Houston Center
Sun 08:51:30 AM 32.0572 -93.7186 34° Northeast 434 499 35,000  Level Houston Center
Sun 08:52:31 AM 32.1531 -93.6372 36° Northeast 433 498 35,000  Level Houston Center
Sun 08:53:33 AM 32.2569 -93.5569 33° Northeast 434 499 35,000 47 Level Houston Center
Sun 08:54:38 AM 32.3644 -93.4658 36° Northeast 435 501 35,100  Climbing Fort Worth Center
Sun 08:55:38 AM 32.4744 -93.3800 33° Northeast 435 501 35,000 -50 Descending Fort Worth Center
Sun 08:56:38 AM 32.5742 -93.2992 34° Northeast 435 501 35,000  Level Fort Worth Center
Sun 08:57:38 AM 32.6736 -93.2181 34° Northeast 435 501 35,000  Level Fort Worth Center
Sun 08:58:38 AM 32.7733 -93.1367 34° Northeast 435 501 35,000  Level Fort Worth Center
Sun 08:59:38 AM 32.8708 -93.0581 34° Northeast 435 501 35,000  Level Fort Worth Center
Sun 09:00:38 AM 32.9681 -92.9789 34° Northeast 435 501 35,000  Level Fort Worth Center
Sun 09:01:38 AM 33.0717 -92.8944 34° Northeast 435 501 35,000  Level Fort Worth Center
Sun 09:02:38 AM 33.1708 -92.8125 35° Northeast 435 501 35,000  Level Fort Worth Center
Sun 09:04:44 AM 33.3425 -92.6178 43° Northeast 429 494 35,000  Level Memphis Center
Sun 09:05:44 AM 33.4156 -92.5025 53° Northeast 429 494 35,000  Level Memphis Center
Sun 09:06:44 AM 33.4906 -92.3872 52° Northeast 434 499 35,000  Level Memphis Center
Sun 09:07:44 AM 33.5694 -92.2744 50° Northeast 434 499 35,000  Level Memphis Center
Sun 09:08:44 AM 33.6442 -92.1589 52° Northeast 434 499 35,000  Level Memphis Center
Sun 09:09:44 AM 33.7169 -92.0456 52° Northeast 434 499 35,000  Level Memphis Center
Sun 09:10:44 AM 33.7933 -91.9344 50° Northeast 434 499 35,000  Level Memphis Center
Sun 09:11:44 AM 33.8658 -91.8206 53° Northeast 434 499 35,000  Level Memphis Center
Sun 09:12:44 AM 33.9403 -91.6917 55° Northeast 428 493 35,000  Level Memphis Center
Sun 09:13:44 AM 34.0144 -91.5750 52° Northeast 433 498 35,000  Level Memphis Center
Sun 09:14:44 AM 34.0842 -91.4733 50° Northeast 433 498 35,000  Level Memphis Center
Sun 09:15:44 AM 34.1583 -91.3586 52° Northeast 439 505 35,000  Level Memphis Center
Sun 09:16:44 AM 34.2322 -91.2414 53° Northeast 434 499 35,000  Level Memphis Center
Sun 09:17:44 AM 34.3061 -91.1292 51° Northeast 434 499 35,000  Level Memphis Center
Sun 09:18:44 AM 34.3778 -91.0089 54° Northeast 434 499 35,000  Level Memphis Center
Sun 09:19:44 AM 34.4511 -90.8936 52° Northeast 435 501 35,000  Level Memphis Center
Sun 09:20:44 AM 34.5331 -90.7631 53° Northeast 435 501 35,000  Level Memphis Center
Sun 09:21:44 AM 34.6044 -90.6447 54° Northeast 430 495 35,000  Level Memphis Center
Sun 09:22:44 AM 34.6775 -90.5289 52° Northeast 430 495 35,000  Level Memphis Center
Sun 09:23:44 AM 34.7528 -90.4053 53° Northeast 435 501 35,000  Level Memphis Center
Sun 09:24:44 AM 34.8258 -90.2864 53° Northeast 430 495 35,000  Level Memphis Center
Sun 09:25:44 AM 34.9028 -90.1697 51° Northeast 435 501 35,000  Level Memphis Center
Sun 09:26:44 AM 34.9819 -90.0506 51° Northeast 445 512 35,000  Level Memphis Center
Sun 09:27:44 AM 35.0419 -89.9311 58° Northeast 450 518 35,000  Level Memphis Center
Sun 09:28:44 AM 35.0917 -89.7861 67° East 450 518 35,000  Level Memphis Center
Sun 09:29:44 AM 35.1408 -89.6411 67° East 456 525 35,000  Level Memphis Center
Sun 09:30:44 AM 35.1961 -89.4831 67° East 456 525 35,000  Level Memphis Center
Sun 09:31:44 AM 35.2450 -89.3375 68° East 451 519 35,000  Level Memphis Center
Sun 09:32:44 AM 35.2961 -89.1944 66° East 460 529 35,000  Level Memphis Center
Sun 09:33:44 AM 35.3447 -89.0511 67° East 460 529 35,000  Level Memphis Center
Sun 09:34:44 AM 35.3972 -88.9078 66° East 455 524 35,000  Level Memphis Center
Sun 09:35:44 AM 35.4433 -88.7617 69° East 455 524 35,000  Level Memphis Center
Sun 09:36:44 AM 35.4936 -88.6181 67° East 455 524 35,000  Level Memphis Center
Sun 09:37:44 AM 35.5456 -88.4689 67° East 455 524 35,000  Level Memphis Center
Sun 09:38:44 AM 35.5956 -88.3222 67° East 455 524 35,000  Level Memphis Center
Sun 09:39:44 AM 35.6453 -88.1778 67° East 455 524 35,000  Level Memphis Center
Sun 09:40:44 AM 35.6967 -88.0333 66° East 450 518 35,000  Level Memphis Center
Sun 09:41:44 AM 35.7461 -87.8811 68° East 460 529 35,000  Level Memphis Center
Sun 09:42:44 AM 35.7950 -87.7311 68° East 466 536 35,000  Level Memphis Center
Sun 09:43:44 AM 35.8458 -87.5783 68° East 466 536 35,000  Level Memphis Center
Sun 09:44:44 AM 35.8947 -87.4308 68° East 471 542 35,000  Level Memphis Center
Sun 09:45:44 AM 35.9453 -87.2775 68° East 476 548 35,000  Level Memphis Center
Sun 09:46:44 AM 35.9933 -87.1244 69° East 476 548 35,000  Level Memphis Center
Sun 09:47:44 AM 36.0414 -86.9711 69° East 476 548 35,000  Level Memphis Center
Sun 09:48:44 AM 36.0892 -86.8150 69° East 476 548 35,000  Level Memphis Center
Sun 09:49:44 AM 36.1408 -86.6586 68° East 476 548 35,000  Level Memphis Center
Sun 09:50:44 AM 36.1925 -86.5019 68° East 476 548 35,000  Level Memphis Center
Sun 09:51:44 AM 36.2586 -86.3572 60° Northeast 481 554 35,000  Level Memphis Center
Sun 09:52:44 AM 36.3333 -86.2144 57° Northeast 488 562 35,000  Level Memphis Center
Sun 09:53:44 AM 36.4078 -86.0767 56° Northeast 483 556 35,000  Level Memphis Center
Sun 09:54:44 AM 36.4800 -85.9333 58° Northeast 483 556 35,000  Level Memphis Center
Sun 09:55:55 AM 36.5536 -85.7772 60° Northeast 484 557 35,000  Level Indianapolis Center
Sun 09:56:57 AM 36.5969 -85.6178 71° East 485 558 35,000  Level Indianapolis Center
Sun 09:57:59 AM 36.6417 -85.4578 71° East 486 559 35,000  Level Indianapolis Center
Sun 09:59:00 AM 36.6867 -85.2975 71° East 488 562 35,000  Level Indianapolis Center
Sun 10:00:02 AM 36.7406 -85.1056 71° East 487 560 35,000  Level Indianapolis Center
Sun 10:01:04 AM 36.7864 -84.9422 71° East 494 568 35,000 145 Level Indianapolis Center
Sun 10:02:06 AM 36.8319 -84.7794 71° East 495 570 35,300 581 Climbing Indianapolis Center
Sun 10:03:08 AM 36.8769 -84.6147 71° East 497 572 36,200 780 Climbing Indianapolis Center
Sun 10:04:09 AM 36.9253 -84.4431 71° East 493 567 36,900 390 Climbing Indianapolis Center
Sun 10:05:11 AM 36.9700 -84.2806 71° East 493 567 37,000 48 Climbing Indianapolis Center
Sun 10:06:13 AM 37.0144 -84.1169 71° East 494 568 37,000  Level Indianapolis Center
Sun 10:07:15 AM 37.0583 -83.9536 71° East 493 567 37,000  Level Indianapolis Center
Sun 10:08:17 AM 37.1025 -83.7900 71° East 493 567 37,000  Level Indianapolis Center
Sun 10:09:19 AM 37.1472 -83.6261 71° East 494 568 37,000  Level Indianapolis Center
Sun 10:10:20 AM 37.1975 -83.4378 71° East 487 560 37,000  Level Indianapolis Center
Sun 10:11:22 AM 37.2406 -83.2744 72° East 488 562 37,000  Level Indianapolis Center
Sun 10:12:24 AM 37.2833 -83.1094 72° East 491 565 37,000  Level Indianapolis Center
Sun 10:13:26 AM 37.3264 -82.9461 72° East 489 563 37,000  Level Indianapolis Center
Sun 10:14:28 AM 37.3675 -82.7825 72° East 488 562 37,000  Level Indianapolis Center
Sun 10:15:30 AM 37.4097 -82.6200 72° East 486 559 37,000  Level Indianapolis Center
Sun 10:16:31 AM 37.4511 -82.4572 72° East 485 558 37,000  Level Indianapolis Center
Sun 10:17:33 AM 37.4925 -82.2947 72° East 487 560 37,000  Level Indianapolis Center
Sun 10:18:35 AM 37.5233 -82.1006 79° East 485 558 37,000  Level Indianapolis Center
Sun 10:19:37 AM 37.5483 -81.9347 79° East 483 556 37,000  Level Indianapolis Center
Sun 10:20:39 AM 37.5703 -81.7678 81° East 482 555 37,000  Level Indianapolis Center
Sun 10:21:40 AM 37.5922 -81.6003 81° East 481 554 37,000  Level Indianapolis Center
Sun 10:22:42 AM 37.6128 -81.4483 80° East 477 549 37,000  Level Indianapolis Center
Sun 10:23:44 AM 37.6381 -81.2542 81° East 480 552 37,000  Level Indianapolis Center
Sun 10:24:46 AM 37.6592 -81.0933 81° East 479 551 37,000  Level Indianapolis Center
Sun 10:25:47 AM 37.6797 -80.9314 81° East 482 555 37,000  Level Indianapolis Center
Sun 10:26:49 AM 37.7044 -80.7344 81° East 487 560 37,000  Level Indianapolis Center
Sun 10:27:51 AM 37.7256 -80.5725 81° East 482 555 37,000  Level Indianapolis Center
Sun 10:28:53 AM 37.7450 -80.4097 81° East 483 556 37,000  Level Indianapolis Center
Sun 10:29:54 AM 37.7647 -80.2472 81° East 482 555 37,000  Level Indianapolis Center
Sun 10:30:56 AM 37.7908 -80.0528 80° East 479 551 37,000  Level Indianapolis Center
Sun 10:31:58 AM 37.8094 -79.8886 82° East 481 554 37,000  Level Indianapolis Center
Sun 10:33:00 AM 37.8297 -79.7261 81° East 479 551 37,000  Level Indianapolis Center
Sun 10:34:02 AM 37.8483 -79.5628 82° East 477 549 37,000  Level Indianapolis Center
Sun 10:35:13 AM 37.8761 -79.3644 80° East 481 554 37,000  Level Washington Center
Sun 10:36:13 AM 37.8939 -79.1994 82° East 481 554 37,000  Level Washington Center
Sun 10:37:10 AM 37.9136 -79.0189 82° East 476 548 37,000  Level Washington Center
Sun 10:38:11 AM 37.9369 -78.8539 80° East 476 548 37,000  Level Washington Center
Sun 10:39:12 AM 37.9539 -78.6914 82° East 476 548 37,000  Level Washington Center
Sun 10:40:13 AM 37.9747 -78.5236 81° East 476 548 37,000  Level Washington Center
Sun 10:41:11 AM 37.9933 -78.3583 82° East 476 548 37,000  Level Washington Center
Sun 10:42:12 AM 38.0092 -78.2061 82° East 481 554 37,000  Level Washington Center
Sun 10:43:13 AM 38.0689 -78.0447 65° Northeast 465 535 37,000  Level Washington Center
Sun 10:44:11 AM 38.1386 -77.9017 58° Northeast 465 535 37,000  Level Washington Center
Sun 10:45:11 AM 38.2078 -77.7611 58° Northeast 459 528 37,000  Level Washington Center
Sun 10:46:12 AM 38.2792 -77.6206 57° Northeast 465 535 37,000  Level Washington Center
Sun 10:47:13 AM 38.3481 -77.4794 58° Northeast 470 541 37,000 -198 Level Washington Center
Sun 10:48:13 AM 38.4169 -77.3381 58° Northeast 470 541 36,600 -667 Descending Washington Center
Sun 10:49:10 AM 38.4878 -77.1939 58° Northeast 470 541 35,700 -950 Descending Washington Center
Sun 10:50:13 AM 38.5564 -77.0492 59° Northeast 470 541 34,700 -934 Descending Washington Center
Sun 10:51:12 AM 38.6289 -76.9019 58° Northeast 470 541 33,800 -958 Descending Washington Center
Sun 10:52:12 AM 38.7033 -76.7542 57° Northeast 475 547 32,800 -950 Descending Washington Center
Sun 10:53:12 AM 38.8006 -76.6306 45° Northeast 480 552 31,900 -958 Descending Washington Center
Sun 10:54:11 AM 38.9036 -76.5144 41° Northeast 480 552 30,900 -958 Descending Washington Center
Sun 10:55:11 AM 39.0086 -76.3956 41° Northeast 485 558 30,000 -942 Descending Washington Center
Sun 10:56:12 AM 39.1136 -76.2764 41° Northeast 496 571 29,000 -984 Descending Washington Center
Sun 10:57:13 AM 39.2183 -76.1542 42° Northeast 496 571 28,000 -1,240 Descending Washington Center
Sun 10:58:13 AM 39.3169 -76.0394 42° Northeast 491 565 26,500 -1,271 Descending Washington Center
Sun 10:59:11 AM 39.4131 -75.9219 43° Northeast 479 551 25,500 -1,017 Descending Washington Center
Sun 11:00:11 AM 39.5133 -75.8067 42° Northeast 474 545 24,500 -992 Descending Washington Center
Sun 11:01:12 AM 39.6072 -75.6939 43° Northeast 474 545 23,500 -1,180 Descending Washington Center
Sun 11:02:13 AM 39.7053 -75.5781 42° Northeast 474 545 22,100 -1,884 Descending Washington Center
Sun 11:03:13 AM 39.7947 -75.4700 43° Northeast 461 531 19,700 -2,350 Descending Washington Center
Sun 11:04:13 AM 39.8842 -75.3617 43° Northeast 444 511 17,400 -2,250 Descending Washington Center
Sun 11:05:13 AM 39.9694 -75.2586 43° Northeast 431 496 15,200 -2,237 Descending Washington Center
Sun 11:06:11 AM 40.0503 -75.1578 44° Northeast 409 471 13,000 -2,168 Descending Washington Center
Sun 11:07:12 AM 40.1289 -75.0622 43° Northeast 391 450 10,900 -1,488 Descending Washington Center
Sun 11:08:12 AM 40.2014 -74.9722 43° Northeast 372 428 10,000 -1,069 Descending Washington Center
Sun 11:08:53 AM 40.2500 -74.9167 41° Northeast 320 368 9,100 -1,188 Descending New York TRACON
Sun 11:09:53 AM 40.3000 -74.8333 52° Northeast 297 342 8,000 -550 Descending New York TRACON
Sun 11:10:53 AM 40.3667 -74.7667 37° Northeast 295 339 8,000 -700 Level New York TRACON
Sun 11:11:53 AM 40.4000 -74.6667 66° East 301 346 6,600 -1,100 Descending New York TRACON
Sun 11:12:53 AM 40.3833 -74.5667 102° East 287 330 5,800 -1,000 Descending New York TRACON
Sun 11:13:53 AM 40.3833 -74.4667 90° East 281 323 4,600 -1,050 Descending New York TRACON
Sun 11:14:53 AM 40.4000 -74.3667 78° East 264 304 3,700 -800 Descending New York TRACON
Sun 11:15:53 AM 40.4500 -74.3167 37° Northeast 223 257 3,000 -350 Descending New York TRACON
Sun 11:16:53 AM 40.5000 -74.2833 27° Northeast 220 253 3,000  Level New York TRACON

Login

Don't have an account? Register now (free) for customized features, flight alerts, and more!